Time;durP1;ratioP1;P1;durP2;ratioP2;P2;SDS_P1;SDS_P2;PMS_P1;PMS_P2;Temp;Humidity;BMP_temperature;BMP_pressure;BME280_temperature;BME280_humidity;BME280_pressure;Samples;Min_cycle;Max_cycle;Signal;HPM_P1;HPM_P2
2022/11/26 00:00:14;;;;;;;6.07;1.65;;;18.00;80.00;;;;;;6182441;23;45368;-68
2022/11/26 00:02:42;;;;;;;7.35;1.63;;;18.00;80.10;;;;;;6182025;23;45356;-68
2022/11/26 00:05:12;;;;;;;4.28;1.30;;;18.00;80.00;;;;;;6181504;23;46288;-68
2022/11/26 00:07:40;;;;;;;3.05;1.20;;;18.00;79.90;;;;;;6181168;23;45433;-68
2022/11/26 00:10:18;;;;;;;4.68;1.58;;;18.00;79.80;;;;;;6181351;22;45278;-68
2022/11/26 00:12:45;;;;;;;3.58;1.50;;;17.90;80.00;;;;;;6182081;23;45542;-68
2022/11/26 00:15:17;;;;;;;4.00;1.38;;;17.90;79.70;;;;;;6181011;23;46632;-67
2022/11/26 00:17:45;;;;;;;4.13;1.25;;;17.90;79.60;;;;;;6180954;23;45269;-69
2022/11/26 00:20:13;;;;;;;2.92;1.25;;;17.90;80.80;;;;;;6180988;23;45516;-67
2022/11/26 00:22:41;;;;;;;3.78;1.60;;;17.90;79.70;;;;;;6181929;23;45436;-67
2022/11/26 00:25:15;;;;;;;3.20;1.55;;;17.90;79.80;;;;;;6181419;23;47496;-67
2022/11/26 00:27:42;;;;;;;3.47;1.40;;;17.90;79.70;;;;;;6178288;23;45205;-67
2022/11/26 00:30:16;;;;;;;8.30;1.42;;;17.90;79.60;;;;;;6181714;23;45242;-67
2022/11/26 00:32:42;;;;;;;4.38;1.55;;;17.90;79.70;;;;;;6180856;23;45473;-68
2022/11/26 00:35:11;;;;;;;3.97;1.40;;;17.90;79.60;;;;;;6181559;23;47470;-68
2022/11/26 00:37:42;;;;;;;5.85;1.50;;;17.90;79.60;;;;;;6181096;23;45276;-67
2022/11/26 00:40:20;;;;;;;6.90;1.63;;;17.90;79.60;;;;;;6181802;23;45484;-69
2022/11/26 00:42:47;;;;;;;3.33;1.35;;;18.00;79.90;;;;;;6181760;23;45341;-68
2022/11/26 00:45:17;;;;;;;5.03;1.40;;;18.00;79.60;;;;;;6180775;23;46564;-68
2022/11/26 00:47:44;;;;;;;5.50;1.42;;;18.00;79.60;;;;;;6180687;23;45332;-71
2022/11/26 00:50:17;;;;;;;3.75;1.45;;;17.90;79.70;;;;;;6181194;23;45610;-68
2022/11/26 00:52:45;;;;;;;5.35;1.85;;;18.00;79.60;;;;;;6182055;23;45276;-67
2022/11/26 00:55:20;;;;;;;5.82;1.48;;;17.90;79.60;;;;;;6181708;23;46348;-68
2022/11/26 00:57:47;;;;;;;3.15;1.50;;;18.00;79.70;;;;;;6184612;23;45390;-67
2022/11/26 01:00:16;;;;;;;2.97;1.27;;;18.00;79.60;;;;;;6185040;23;45205;-68
2022/11/26 01:02:43;;;;;;;2.50;1.20;;;17.90;79.50;;;;;;6184938;23;45273;-67
2022/11/26 01:05:10;;;;;;;4.45;1.45;;;18.00;79.60;;;;;;6183913;23;45332;-68
2022/11/26 01:07:39;;;;;;;5.93;1.73;;;17.90;79.50;;;;;;6182865;23;45482;-68
2022/11/26 01:10:07;;;;;;;3.08;1.40;;;17.90;79.40;;;;;;6185852;22;45371;-68
2022/11/26 01:12:34;;;;;;;4.45;1.77;;;17.90;79.60;;;;;;6184111;23;45272;-69
2022/11/26 01:15:01;;;;;;;5.63;1.75;;;17.90;79.50;;;;;;6185085;23;46279;-69
2022/11/26 01:17:27;;;;;;;5.10;1.58;;;17.90;79.30;;;;;;6183365;23;45283;-69
2022/11/26 01:19:54;;;;;;;5.15;1.52;;;17.90;79.30;;;;;;6183230;23;45229;-69
2022/11/26 01:22:22;;;;;;;4.90;1.60;;;17.90;79.10;;;;;;6185666;23;45379;-68
2022/11/26 01:24:50;;;;;;;4.40;1.67;;;17.90;79.10;;;;;;6183953;23;48672;-69
2022/11/26 01:27:20;;;;;;;3.65;1.40;;;17.90;79.10;;;;;;6184220;23;45234;-69
2022/11/26 01:29:47;;;;;;;3.30;1.48;;;17.90;79.10;;;;;;6184645;23;45301;-68
2022/11/26 01:32:14;;;;;;;4.20;1.60;;;17.90;79.00;;;;;;6184134;23;45204;-68
2022/11/26 01:34:41;;;;;;;2.47;1.30;;;17.90;79.20;;;;;;6184648;23;47081;-69
2022/11/26 01:37:12;;;;;;;3.80;1.50;;;17.90;79.10;;;;;;6183223;23;45715;-69
2022/11/26 01:39:40;;;;;;;2.83;1.40;;;17.90;79.00;;;;;;6185072;23;45173;-68
2022/11/26 01:42:22;;;;;;;4.80;1.30;;;17.90;78.90;;;;;;6182981;23;45328;-69
2022/11/26 01:44:49;;;;;;;3.70;1.55;;;17.90;79.20;;;;;;6183586;23;45282;-69
2022/11/26 01:47:22;;;;;;;4.68;1.63;;;18.00;79.10;;;;;;6184529;23;45207;-68
2022/11/26 01:50:28;;;;;;;2.08;1.10;;;18.00;79.10;;;;;;6184330;23;45273;-68
2022/11/26 01:52:56;;;;;;;6.15;1.60;;;17.90;78.70;;;;;;6149910;23;45503;-69
2022/11/26 01:55:24;;;;;;;5.30;1.58;;;18.00;78.80;;;;;;6183516;23;46258;-69
2022/11/26 01:57:52;;;;;;;4.13;1.77;;;18.00;78.90;;;;;;6184452;23;45387;-68
2022/11/26 02:00:19;;;;;;;4.90;1.60;;;18.00;78.70;;;;;;6184384;23;45301;-69
2022/11/26 02:02:46;;;;;;;4.65;1.65;;;17.90;78.60;;;;;;6185443;23;45216;-68
2022/11/26 02:05:20;;;;;;;5.45;1.70;;;17.90;78.50;;;;;;6184975;23;47058;-69
2022/11/26 02:07:47;;;;;;;3.90;1.45;;;17.90;78.30;;;;;;6183038;23;45456;-68
2022/11/26 02:10:14;;;;;;;5.47;1.90;;;17.90;78.50;;;;;;6182967;23;45422;-69
2022/11/26 02:12:43;;;;;;;3.92;1.33;;;17.90;78.70;;;;;;6182731;23;45345;-69
2022/11/26 02:15:12;;;;;;;4.70;1.67;;;17.90;78.50;;;;;;6182314;23;46357;-68
2022/11/26 02:17:43;;;;;;;3.28;1.30;;;17.90;78.40;;;;;;6182086;23;45372;-68
2022/11/26 02:20:34;;;;;;;3.67;1.35;;;17.90;78.30;;;;;;6181695;23;45396;-69
2022/11/26 02:23:35;;;;;;;3.50;1.25;;;17.90;78.50;;;;;;6183525;23;45242;-68
2022/11/26 02:26:29;;;;;;;3.38;1.35;;;17.90;78.10;;;;;;6182765;23;45421;-69
2022/11/26 02:29:03;;;;;;;3.72;1.35;;;17.90;78.30;;;;;;6182461;23;45212;-69
2022/11/26 02:31:35;;;;;;;2.65;1.17;;;17.90;77.80;;;;;;6183179;23;45221;-69
2022/11/26 02:34:09;;;;;;;5.32;2.08;;;17.90;78.00;;;;;;6183409;23;45228;-68
2022/11/26 02:36:42;;;;;;;5.60;2.08;;;17.90;78.20;;;;;;6182475;23;46438;-69
2022/11/26 02:39:13;;;;;;;5.53;1.60;;;17.90;78.20;;;;;;6182468;23;46110;-69
2022/11/26 02:41:45;;;;;;;2.95;1.17;;;17.90;78.00;;;;;;6182525;23;45317;-69
2022/11/26 02:44:13;;;;;;;6.32;1.70;;;17.90;77.90;;;;;;6184043;23;45191;-68
2022/11/26 02:46:42;;;;;;;6.38;1.60;;;17.90;77.80;;;;;;6183784;23;46435;-69
2022/11/26 02:49:11;;;;;;;3.70;1.60;;;17.90;77.60;;;;;;6183592;23;45261;-68
2022/11/26 02:51:40;;;;;;;4.28;1.42;;;17.90;77.50;;;;;;6184892;23;45182;-69
2022/11/26 02:54:08;;;;;;;3.80;1.40;;;18.00;77.20;;;;;;6184659;23;45217;-68
2022/11/26 02:56:36;;;;;;;4.45;1.25;;;18.00;77.40;;;;;;6184372;23;45591;-68
2022/11/26 02:59:04;;;;;;;4.97;1.67;;;18.00;77.50;;;;;;6183732;23;45672;-68
2022/11/26 03:01:37;;;;;;;3.60;1.60;;;17.90;77.20;;;;;;6184921;23;45300;-69
2022/11/26 03:04:10;;;;;;;4.55;1.75;;;17.90;77.10;;;;;;6184881;23;45314;-68
2022/11/26 03:06:38;;;;;;;7.45;1.73;;;17.90;77.00;;;;;;6183667;23;45246;-69
2022/11/26 03:09:06;;;;;;;3.50;1.35;;;17.90;76.40;;;;;;6183382;22;45213;-68
2022/11/26 03:11:33;;;;;;;9.93;1.98;;;17.90;77.00;;;;;;6184428;23;45262;-68
2022/11/26 03:13:59;;;;;;;6.28;1.75;;;17.90;76.50;;;;;;6184755;23;45270;-68
2022/11/26 03:16:27;;;;;;;4.05;1.80;;;17.90;76.40;;;;;;6183138;23;47422;-68
2022/11/26 03:18:53;;;;;;;3.85;1.58;;;17.90;76.40;;;;;;6183144;23;45186;-68
2022/11/26 03:21:21;;;;;;;5.07;1.60;;;17.90;77.50;;;;;;6182841;23;45287;-68
2022/11/26 03:23:48;;;;;;;5.25;1.65;;;17.90;76.40;;;;;;6184187;23;45281;-68
2022/11/26 03:26:15;;;;;;;4.22;1.75;;;17.90;76.40;;;;;;6184198;23;48294;-68
2022/11/26 03:28:42;;;;;;;5.30;1.50;;;17.90;76.40;;;;;;6183552;23;45396;-68
2022/11/26 03:31:08;;;;;;;3.60;1.52;;;17.90;76.40;;;;;;6184420;23;45229;-68
2022/11/26 03:33:35;;;;;;;5.45;1.30;;;17.90;76.40;;;;;;6184189;23;45502;-68
2022/11/26 03:36:02;;;;;;;5.80;1.90;;;17.90;76.40;;;;;;6183853;23;46325;-68
2022/11/26 03:38:30;;;;;;;3.80;1.52;;;17.90;76.40;;;;;;6184097;23;45343;-68
2022/11/26 03:40:57;;;;;;;5.10;1.63;;;17.90;76.40;;;;;;6184324;23;45224;-68
2022/11/26 03:43:24;;;;;;;6.13;1.73;;;17.90;76.40;;;;;;6184665;23;45342;-68
2022/11/26 03:45:51;;;;;;;3.17;1.50;;;17.90;76.40;;;;;;6184041;23;45279;-68
2022/11/26 03:48:18;;;;;;;7.53;1.90;;;17.90;76.40;;;;;;6183480;23;45279;-68
2022/11/26 03:50:45;;;;;;;4.80;1.58;;;17.90;76.40;;;;;;6182432;23;45232;-69
2022/11/26 03:53:12;;;;;;;4.65;1.67;;;17.90;76.40;;;;;;6182976;23;45300;-69
2022/11/26 03:55:40;;;;;;;5.07;1.63;;;17.90;76.40;;;;;;6182840;23;45309;-68
2022/11/26 03:58:07;;;;;;;4.10;1.52;;;17.90;76.40;;;;;;6181674;23;45343;-68
2022/11/26 04:00:34;;;;;;;4.82;1.90;;;17.90;76.40;;;;;;6183057;23;45393;-69
2022/11/26 04:03:00;;;;;;;5.50;1.73;;;17.90;76.00;;;;;;6182614;23;45233;-68
2022/11/26 04:05:27;;;;;;;5.07;1.75;;;17.90;77.50;;;;;;6182707;23;46346;-68
2022/11/26 04:07:54;;;;;;;8.65;2.30;;;17.90;76.10;;;;;;6183538;23;45292;-68
2022/11/26 04:10:21;;;;;;;4.30;1.45;;;17.90;76.10;;;;;;6183732;22;45271;-68
2022/11/26 04:12:49;;;;;;;3.38;1.60;;;17.90;75.90;;;;;;6184273;23;45257;-68
2022/11/26 04:15:16;;;;;;;3.55;1.90;;;17.90;75.80;;;;;;6183112;23;45452;-68
2022/11/26 04:17:42;;;;;;;3.47;1.58;;;17.90;75.90;;;;;;6183261;23;45280;-68
2022/11/26 04:20:10;;;;;;;5.35;1.73;;;17.90;75.60;;;;;;6181918;23;45464;-68
2022/11/26 04:22:37;;;;;;;4.90;1.70;;;17.90;75.70;;;;;;6183942;23;45291;-68
2022/11/26 04:25:04;;;;;;;6.70;1.85;;;17.90;75.20;;;;;;6183425;23;45217;-68
2022/11/26 04:27:31;;;;;;;3.83;1.60;;;17.90;75.40;;;;;;6182647;23;45292;-68
2022/11/26 04:30:05;;;;;;;3.92;1.60;;;17.80;75.00;;;;;;6183634;23;45294;-68
2022/11/26 04:32:32;;;;;;;4.40;1.55;;;17.90;75.20;;;;;;6184167;23;45471;-68
2022/11/26 04:34:58;;;;;;;6.50;2.05;;;17.90;75.60;;;;;;6183565;23;46581;-69
2022/11/26 04:37:25;;;;;;;5.43;2.08;;;17.90;75.60;;;;;;6183002;23;45244;-68
2022/11/26 04:39:52;;;;;;;3.95;1.80;;;17.90;75.40;;;;;;6183855;23;45337;-68
2022/11/26 04:42:19;;;;;;;7.82;2.25;;;17.90;75.40;;;;;;6183711;23;45318;-68
2022/11/26 04:44:45;;;;;;;8.07;2.00;;;17.90;75.20;;;;;;6183066;23;46377;-68
2022/11/26 04:47:14;;;;;;;5.45;1.42;;;17.90;75.20;;;;;;6183134;23;46303;-68
2022/11/26 04:49:41;;;;;;;5.35;1.90;;;17.90;75.20;;;;;;6182978;23;45424;-68
2022/11/26 04:52:08;;;;;;;2.95;1.45;;;17.90;75.00;;;;;;6183799;23;45196;-68
2022/11/26 04:54:35;;;;;;;3.28;1.60;;;17.90;75.10;;;;;;6183297;23;46434;-68
2022/11/26 04:57:01;;;;;;;4.65;1.83;;;17.90;75.10;;;;;;6183073;23;45753;-69
2022/11/26 04:59:28;;;;;;;5.05;2.15;;;17.90;75.00;;;;;;6183338;23;45317;-68
2022/11/26 05:01:55;;;;;;;3.75;1.70;;;17.90;75.00;;;;;;6183541;23;45365;-69
2022/11/26 05:04:23;;;;;;;6.25;1.85;;;17.90;74.90;;;;;;6183478;23;47245;-68
2022/11/26 05:06:50;;;;;;;3.97;1.75;;;17.90;74.70;;;;;;6183036;23;45245;-68
2022/11/26 05:09:16;;;;;;;4.35;1.73;;;17.90;74.50;;;;;;6182929;22;45266;-68
2022/11/26 05:11:43;;;;;;;4.25;1.80;;;17.90;74.50;;;;;;6183389;23;45376;-68
2022/11/26 05:14:10;;;;;;;4.68;1.63;;;17.90;74.50;;;;;;6182318;23;48014;-68
2022/11/26 05:16:37;;;;;;;5.32;1.75;;;17.90;74.50;;;;;;6182567;23;45361;-68
2022/11/26 05:19:04;;;;;;;4.22;1.77;;;17.90;74.30;;;;;;6182246;23;45348;-68
2022/11/26 05:21:32;;;;;;;4.63;2.00;;;17.90;74.00;;;;;;6180596;23;45209;-68
2022/11/26 05:23:58;;;;;;;3.65;1.65;;;17.80;74.10;;;;;;6182602;23;46492;-68
2022/11/26 05:26:25;;;;;;;4.72;1.65;;;17.90;73.90;;;;;;6182564;23;45226;-69
2022/11/26 05:28:52;;;;;;;3.55;1.42;;;17.80;73.70;;;;;;6182443;23;45385;-68
2022/11/26 05:31:19;;;;;;;8.45;2.05;;;17.80;73.60;;;;;;6182280;23;45489;-68
2022/11/26 05:33:46;;;;;;;8.30;1.85;;;17.80;73.90;;;;;;6182527;23;45217;-68
2022/11/26 05:36:12;;;;;;;3.10;1.58;;;17.80;74.00;;;;;;6182000;23;45288;-68
2022/11/26 05:38:40;;;;;;;4.15;1.80;;;17.90;74.10;;;;;;6181646;23;45364;-68
2022/11/26 05:41:07;;;;;;;3.88;1.85;;;17.90;74.00;;;;;;6182420;23;45218;-68
2022/11/26 05:43:35;;;;;;;5.30;1.80;;;17.90;73.60;;;;;;6182402;23;46281;-68
2022/11/26 05:46:04;;;;;;;5.07;2.20;;;17.90;74.00;;;;;;6183577;23;45669;-68
2022/11/26 05:48:31;;;;;;;4.05;2.20;;;17.90;73.70;;;;;;6181974;23;45417;-69
2022/11/26 05:50:58;;;;;;;4.53;2.10;;;17.90;73.60;;;;;;6183593;23;45353;-69
2022/11/26 05:53:26;;;;;;;5.03;1.92;;;17.90;73.80;;;;;;6182698;23;46969;-68
2022/11/26 05:55:54;;;;;;;4.35;2.20;;;17.90;73.80;;;;;;6183325;23;45353;-68
2022/11/26 05:58:21;;;;;;;4.30;1.80;;;17.90;73.60;;;;;;6182965;23;45185;-68
2022/11/26 06:00:48;;;;;;;4.35;1.90;;;17.90;73.50;;;;;;6183016;23;45200;-68
2022/11/26 06:03:15;;;;;;;4.97;1.95;;;17.90;73.30;;;;;;6183163;23;46257;-68
2022/11/26 06:05:43;;;;;;;3.72;1.88;;;17.90;73.40;;;;;;6182455;23;45240;-68
2022/11/26 06:08:09;;;;;;;5.85;2.00;;;17.80;73.30;;;;;;6183087;23;45302;-68
2022/11/26 06:10:36;;;;;;;4.70;1.80;;;17.90;73.30;;;;;;6183271;22;45300;-69
2022/11/26 06:13:04;;;;;;;4.05;1.75;;;17.90;73.10;;;;;;6182649;23;46304;-68
2022/11/26 06:15:31;;;;;;;2.83;1.70;;;17.80;72.80;;;;;;6182832;23;45379;-68
2022/11/26 06:17:58;;;;;;;3.15;1.80;;;17.80;73.00;;;;;;6182287;23;45412;-69
2022/11/26 06:20:25;;;;;;;4.93;2.25;;;17.80;72.80;;;;;;6181043;23;45205;-68
2022/11/26 06:22:52;;;;;;;4.95;1.80;;;17.80;72.70;;;;;;6182486;23;46301;-68
2022/11/26 06:25:18;;;;;;;3.88;1.65;;;17.80;72.70;;;;;;6182936;23;46101;-68
2022/11/26 06:27:45;;;;;;;3.42;1.85;;;17.80;72.60;;;;;;6182812;23;45246;-69
2022/11/26 06:30:14;;;;;;;4.70;1.63;;;17.80;72.60;;;;;;6177768;23;45498;-68
2022/11/26 06:32:41;;;;;;;4.53;1.88;;;17.80;72.40;;;;;;6182882;23;45270;-68
2022/11/26 06:35:09;;;;;;;4.35;1.80;;;17.80;72.90;;;;;;6181821;23;45396;-68
2022/11/26 06:37:36;;;;;;;4.75;1.85;;;17.80;72.90;;;;;;6181985;23;45442;-68
2022/11/26 06:40:03;;;;;;;4.57;1.70;;;17.80;73.10;;;;;;6182792;23;45189;-68
2022/11/26 06:42:30;;;;;;;4.10;1.90;;;17.80;72.80;;;;;;6183216;23;45284;-69
2022/11/26 06:44:57;;;;;;;3.40;1.80;;;17.80;72.70;;;;;;6183921;23;45245;-68
2022/11/26 06:47:25;;;;;;;5.05;1.92;;;17.80;72.70;;;;;;6183105;23;45348;-68
2022/11/26 06:49:52;;;;;;;3.63;1.80;;;17.80;72.50;;;;;;6183107;23;45342;-68
2022/11/26 06:52:19;;;;;;;4.45;1.80;;;17.80;72.60;;;;;;6182527;23;47004;-69
2022/11/26 06:54:45;;;;;;;3.67;1.67;;;17.80;72.40;;;;;;6182436;23;45357;-68
2022/11/26 06:57:12;;;;;;;3.55;1.85;;;17.80;72.40;;;;;;6182216;23;45311;-68
2022/11/26 06:59:39;;;;;;;3.63;1.70;;;17.80;72.20;;;;;;6181978;23;45304;-68
2022/11/26 07:02:06;;;;;;;3.38;1.80;;;17.80;72.20;;;;;;6182987;23;48012;-68
2022/11/26 07:04:34;;;;;;;5.20;1.85;;;17.80;71.90;;;;;;6181451;23;45316;-69
2022/11/26 07:07:00;;;;;;;3.20;1.70;;;17.80;72.00;;;;;;6182342;23;45269;-68
2022/11/26 07:09:27;;;;;;;2.60;1.70;;;17.80;71.80;;;;;;6181890;23;45383;-68
2022/11/26 07:11:54;;;;;;;7.55;1.92;;;17.80;71.80;;;;;;6181416;23;45416;-68
2022/11/26 07:14:21;;;;;;;3.70;1.90;;;17.80;71.60;;;;;;6181668;23;45280;-68
2022/11/26 07:16:48;;;;;;;4.65;1.90;;;17.80;71.40;;;;;;6178982;23;45322;-68
2022/11/26 07:19:15;;;;;;;6.20;1.80;;;17.80;71.40;;;;;;6178085;23;45277;-68
2022/11/26 07:21:43;;;;;;;3.35;1.58;;;17.80;71.40;;;;;;6179787;23;48083;-68
2022/11/26 07:24:10;;;;;;;4.43;1.77;;;17.80;71.20;;;;;;6182024;23;45452;-69
2022/11/26 07:26:36;;;;;;;3.05;1.52;;;17.80;71.00;;;;;;6182167;23;45264;-69
2022/11/26 07:29:04;;;;;;;3.13;1.70;;;17.80;70.90;;;;;;6182108;23;45332;-68
2022/11/26 07:31:30;;;;;;;3.75;2.08;;;17.70;71.00;;;;;;6182913;23;45365;-68
2022/11/26 07:33:57;;;;;;;4.43;1.90;;;17.70;71.30;;;;;;6182485;23;45349;-68
2022/11/26 07:36:26;;;;;;;6.32;1.90;;;17.70;71.20;;;;;;6182034;23;45369;-68
2022/11/26 07:38:55;;;;;;;3.03;1.60;;;17.80;71.30;;;;;;6182038;23;45416;-68
2022/11/26 07:41:23;;;;;;;2.65;1.50;;;17.80;71.20;;;;;;6181992;23;45338;-68
2022/11/26 07:43:51;;;;;;;4.72;1.67;;;17.80;71.10;;;;;;6182890;23;45376;-68
2022/11/26 07:46:20;;;;;;;2.78;1.65;;;17.70;71.20;;;;;;6182817;23;45314;-68
2022/11/26 07:48:47;;;;;;;2.80;1.40;;;17.80;71.30;;;;;;6181252;23;45413;-68
2022/11/26 07:51:18;;;;;;;4.45;1.90;;;17.70;71.00;;;;;;6182138;23;46358;-68
2022/11/26 07:53:45;;;;;;;3.97;1.60;;;17.80;71.20;;;;;;6181992;23;45337;-68
2022/11/26 07:56:13;;;;;;;6.72;1.88;;;17.80;71.20;;;;;;6182498;23;45254;-68
2022/11/26 07:58:40;;;;;;;3.85;1.90;;;17.80;71.00;;;;;;6181953;23;45242;-68
2022/11/26 08:01:08;;;;;;;2.75;1.65;;;17.70;70.80;;;;;;6182084;23;46448;-68
2022/11/26 08:03:38;;;;;;;4.20;1.95;;;17.80;70.80;;;;;;6182178;23;45234;-68
2022/11/26 08:06:07;;;;;;;2.80;1.45;;;17.80;70.70;;;;;;6179801;23;45311;-68
2022/11/26 08:08:34;;;;;;;4.10;1.88;;;17.70;70.70;;;;;;6182259;23;45449;-69
2022/11/26 08:11:01;;;;;;;3.58;1.50;;;17.70;70.70;;;;;;6181827;22;47766;-68
2022/11/26 08:13:29;;;;;;;2.72;1.50;;;17.70;70.70;;;;;;6182400;23;45274;-68
2022/11/26 08:15:56;;;;;;;3.50;1.58;;;17.70;70.50;;;;;;6182314;23;45446;-68
2022/11/26 08:18:23;;;;;;;3.25;1.27;;;17.70;70.30;;;;;;6181948;23;45278;-68
2022/11/26 08:20:55;;;;;;;2.55;1.45;;;17.70;70.40;;;;;;6180712;23;46333;-69
2022/11/26 08:23:23;;;;;;;2.58;1.58;;;17.70;70.40;;;;;;6182170;23;45368;-68
2022/11/26 08:25:50;;;;;;;3.35;1.55;;;17.70;70.30;;;;;;6182481;23;45239;-68
2022/11/26 08:28:17;;;;;;;2.95;1.70;;;17.70;70.10;;;;;;6182356;23;45407;-68
2022/11/26 08:30:45;;;;;;;4.07;1.85;;;17.70;70.20;;;;;;6181289;23;46452;-69
2022/11/26 08:33:12;;;;;;;3.90;1.40;;;17.70;70.20;;;;;;6182496;23;45244;-68
2022/11/26 08:35:39;;;;;;;3.47;1.45;;;17.70;70.40;;;;;;6181844;23;45272;-68
2022/11/26 08:38:06;;;;;;;4.25;1.75;;;17.70;71.00;;;;;;6181631;23;45426;-69
2022/11/26 08:40:33;;;;;;;3.25;1.35;;;17.70;70.40;;;;;;6181912;23;45371;-68
2022/11/26 08:43:00;;;;;;;3.70;1.67;;;17.70;71.50;;;;;;6181825;23;45224;-68
2022/11/26 08:45:27;;;;;;;3.20;1.90;;;17.70;69.80;;;;;;6181373;23;45222;-68
2022/11/26 08:47:55;;;;;;;2.83;1.52;;;17.70;69.10;;;;;;6181418;23;45413;-68
2022/11/26 08:50:22;;;;;;;3.50;1.70;;;17.70;70.00;;;;;;6181412;23;46534;-68
2022/11/26 08:52:49;;;;;;;2.78;1.50;;;17.80;69.20;;;;;;6181239;23;45252;-68
2022/11/26 08:55:16;;;;;;;3.55;1.65;;;17.70;69.60;;;;;;6181963;23;45319;-68
2022/11/26 08:57:42;;;;;;;2.67;1.30;;;17.70;69.40;;;;;;6182035;23;45412;-68
2022/11/26 09:00:10;;;;;;;3.25;1.60;;;17.70;70.50;;;;;;6181040;23;45948;-68
2022/11/26 09:02:37;;;;;;;3.47;1.80;;;17.70;70.10;;;;;;6181617;23;45407;-68
2022/11/26 09:05:06;;;;;;;4.22;1.40;;;17.70;70.30;;;;;;6181374;23;45364;-69
2022/11/26 09:07:33;;;;;;;5.47;2.33;;;17.70;70.30;;;;;;6181594;23;45310;-68
2022/11/26 09:10:00;;;;;;;3.33;1.38;;;17.70;70.40;;;;;;6181739;23;47518;-68
2022/11/26 09:12:26;;;;;;;4.05;1.80;;;17.70;70.50;;;;;;6182092;23;45424;-68
2022/11/26 09:14:53;;;;;;;2.20;1.30;;;17.70;70.50;;;;;;6181987;23;45288;-68
2022/11/26 09:17:20;;;;;;;4.10;1.73;;;17.70;70.40;;;;;;6182695;22;45285;-69
2022/11/26 09:19:47;;;;;;;3.42;1.48;;;17.70;70.50;;;;;;6180885;23;45329;-68
2022/11/26 09:22:15;;;;;;;4.20;1.33;;;17.70;70.50;;;;;;6183593;23;45272;-68
2022/11/26 09:24:42;;;;;;;3.95;1.42;;;17.70;70.50;;;;;;6183127;23;45350;-69
2022/11/26 09:27:10;;;;;;;3.33;1.38;;;17.70;70.40;;;;;;6183784;23;45218;-68
2022/11/26 09:29:37;;;;;;;3.42;1.40;;;17.70;70.50;;;;;;6181548;23;46592;-69
2022/11/26 09:32:06;;;;;;;2.85;1.30;;;17.70;70.50;;;;;;6183534;23;45278;-68
2022/11/26 09:34:33;;;;;;;3.55;1.38;;;17.70;70.70;;;;;;6183273;23;45351;-68
2022/11/26 09:37:00;;;;;;;2.60;1.20;;;17.70;70.70;;;;;;6182987;23;45260;-68
2022/11/26 09:39:29;;;;;;;5.40;1.75;;;17.70;70.50;;;;;;6182416;23;45392;-68
2022/11/26 09:42:03;;;;;;;3.10;1.50;;;17.70;71.60;;;;;;6182350;23;45218;-68
2022/11/26 09:44:46;;;;;;;4.55;1.50;;;17.70;70.50;;;;;;6183532;23;45417;-69
2022/11/26 09:47:17;;;;;;;2.70;1.38;;;17.70;70.00;;;;;;6182416;23;45312;-69
2022/11/26 09:49:55;;;;;;;2.65;1.58;;;17.70;69.60;;;;;;6181742;23;45298;-68
2022/11/26 09:52:25;;;;;;;2.30;1.30;;;17.60;68.90;;;;;;6183223;23;45856;-68
2022/11/26 09:55:03;;;;;;;3.00;1.50;;;17.60;68.40;;;;;;6182087;23;45263;-69
2022/11/26 09:57:35;;;;;;;17.15;2.40;;;17.60;67.80;;;;;;6184361;23;45439;-70
2022/11/26 10:00:04;;;;;;;3.42;1.27;;;17.60;69.00;;;;;;6182361;23;46547;-71
2022/11/26 10:02:30;;;;;;;3.58;1.63;;;17.70;69.00;;;;;;6183747;23;45992;-70
2022/11/26 10:04:57;;;;;;;3.78;1.20;;;17.60;68.50;;;;;;6183224;23;45313;-70
2022/11/26 10:07:42;;;;;;;5.22;1.48;;;17.60;67.30;;;;;;6183619;23;45468;-70
2022/11/26 10:10:16;;;;;;;4.88;2.05;;;17.60;66.60;;;;;;6183568;23;45300;-70
2022/11/26 10:12:53;;;;;;;2.90;1.33;;;17.50;65.90;;;;;;6183025;23;45341;-70
2022/11/26 10:15:28;;;;;;;3.45;1.63;;;17.60;66.10;;;;;;6183419;23;45324;-71
2022/11/26 10:18:03;;;;;;;3.95;1.70;;;17.50;65.70;;;;;;6182415;23;45308;-71
2022/11/26 10:20:49;;;;;;;5.40;1.75;;;17.60;65.60;;;;;;6182189;23;46871;-70
2022/11/26 10:23:23;;;;;;;4.00;1.73;;;17.60;65.40;;;;;;6183079;23;45257;-70
2022/11/26 10:25:54;;;;;;;4.03;1.75;;;17.60;65.40;;;;;;6183704;23;45261;-70
2022/11/26 10:28:27;;;;;;;3.72;1.80;;;17.50;65.20;;;;;;6183025;23;45477;-71
2022/11/26 10:30:58;;;;;;;4.97;1.88;;;17.50;65.20;;;;;;6183266;23;48175;-71
2022/11/26 10:33:31;;;;;;;4.65;1.95;;;17.50;65.00;;;;;;6183735;23;45333;-70
2022/11/26 10:35:57;;;;;;;4.15;1.95;;;17.60;65.10;;;;;;6182868;23;45268;-70
2022/11/26 10:38:24;;;;;;;3.33;1.73;;;17.60;65.30;;;;;;6182908;23;45301;-70
2022/11/26 10:40:53;;;;;;;6.78;1.80;;;17.60;65.10;;;;;;6182802;23;48547;-70
2022/11/26 10:43:22;;;;;;;5.45;1.70;;;17.60;65.30;;;;;;6183260;23;45648;-70
2022/11/26 10:45:51;;;;;;;3.03;1.35;;;17.60;66.10;;;;;;6183540;23;45480;-71
2022/11/26 10:48:24;;;;;;;6.85;1.83;;;17.60;66.60;;;;;;6181952;23;45375;-70
2022/11/26 10:50:58;;;;;;;3.65;1.80;;;17.70;67.90;;;;;;6183062;23;45519;-69
2022/11/26 10:53:26;;;;;;;5.50;2.00;;;17.70;67.90;;;;;;6182368;23;45369;-70
2022/11/26 10:55:57;;;;;;;4.22;1.90;;;17.70;68.10;;;;;;6181907;23;45197;-69
2022/11/26 10:58:26;;;;;;;4.55;1.85;;;17.70;68.30;;;;;;6180369;23;45238;-69
2022/11/26 11:00:57;;;;;;;12.25;2.67;;;17.70;68.50;;;;;;6178979;23;46278;-69
2022/11/26 11:03:27;;;;;;;10.82;2.40;;;17.70;69.70;;;;;;6180499;23;45262;-69
2022/11/26 11:06:11;;;;;;;7.03;1.80;;;17.70;70.30;;;;;;6180484;23;45402;-69
2022/11/26 11:08:38;;;;;;;6.30;1.85;;;17.70;70.70;;;;;;6180791;23;45648;-69
2022/11/26 11:11:19;;;;;;;3.92;1.63;;;17.70;71.00;;;;;;6179625;23;47234;-70
2022/11/26 11:13:47;;;;;;;4.90;1.60;;;17.80;71.00;;;;;;6182447;23;45259;-69
2022/11/26 11:16:16;;;;;;;9.20;1.88;;;17.70;71.20;;;;;;6181981;23;45251;-69
2022/11/26 11:18:50;;;;;;;4.20;1.60;;;17.80;71.50;;;;;;6180017;23;45488;-69
2022/11/26 11:21:19;;;;;;;4.78;1.45;;;17.80;71.50;;;;;;6182998;23;45538;-69
2022/11/26 11:23:46;;;;;;;4.82;1.50;;;17.80;71.60;;;;;;6183219;23;45241;-69
2022/11/26 11:26:19;;;;;;;3.30;1.63;;;17.80;71.80;;;;;;6185503;23;45178;-69
2022/11/26 11:28:49;;;;;;;3.25;1.42;;;17.80;71.70;;;;;;6183914;23;45075;-69
2022/11/26 11:31:17;;;;;;;3.15;1.30;;;17.80;72.00;;;;;;6183201;23;45288;-69
2022/11/26 11:33:45;;;;;;;6.82;1.73;;;17.80;71.90;;;;;;6182017;23;45875;-73
2022/11/26 11:36:20;;;;;;;3.80;1.50;;;17.80;72.10;;;;;;6183262;23;45450;-70
2022/11/26 11:38:49;;;;;;;4.78;1.95;;;17.90;73.30;;;;;;6182532;23;45874;-71
2022/11/26 11:41:27;;;;;;;7.13;2.58;;;17.90;74.90;;;;;;6181104;23;47135;-68
2022/11/26 11:44:03;;;;;;;15.45;2.53;;;18.00;77.10;;;;;;6182557;23;45273;-68
2022/11/26 11:46:56;;;;;;;9.02;2.50;;;17.90;78.40;;;;;;6182015;23;45348;-68
2022/11/26 11:49:41;;;;;;;5.30;1.80;;;17.90;78.10;;;;;;6180826;23;45241;-68
2022/11/26 11:52:18;;;;;;;5.30;1.70;;;17.90;77.20;;;;;;6182198;23;45270;-68
2022/11/26 11:54:56;;;;;;;4.88;1.75;;;17.80;76.80;;;;;;6180900;23;45240;-68
2022/11/26 11:57:39;;;;;;;4.50;1.52;;;17.80;77.10;;;;;;6181321;23;45204;-68
2022/11/26 12:00:12;;;;;;;4.07;1.67;;;17.80;77.50;;;;;;6181001;23;45379;-68
2022/11/26 12:02:56;;;;;;;5.07;1.90;;;17.80;77.80;;;;;;6182196;23;46547;-68
2022/11/26 12:05:35;;;;;;;4.18;1.77;;;17.80;78.20;;;;;;6182395;23;45511;-69
2022/11/26 12:08:12;;;;;;;5.93;1.80;;;17.80;78.50;;;;;;6181826;23;45233;-69
2022/11/26 12:10:48;;;;;;;5.72;2.22;;;17.80;78.60;;;;;;6182110;23;45346;-68
2022/11/26 12:13:18;;;;;;;5.43;1.95;;;17.70;78.70;;;;;;6182736;23;45391;-69
2022/11/26 12:15:50;;;;;;;2.45;1.40;;;17.70;80.00;;;;;;6182600;23;45316;-69
2022/11/26 12:18:25;;;;;;;4.85;1.60;;;17.70;79.30;;;;;;6182262;23;45558;-68
2022/11/26 12:20:56;;;;;;;6.68;1.90;;;17.70;79.40;;;;;;6182888;23;45264;-69
2022/11/26 12:23:31;;;;;;;6.47;1.77;;;17.70;79.50;;;;;;6182108;23;45276;-69
2022/11/26 12:26:07;;;;;;;3.10;1.60;;;17.70;79.70;;;;;;6182482;23;45854;-69
2022/11/26 12:28:40;;;;;;;6.55;1.50;;;17.70;79.90;;;;;;6179653;23;45288;-69
2022/11/26 12:31:12;;;;;;;5.88;2.00;;;17.70;80.20;;;;;;6180351;23;45214;-68
2022/11/26 12:33:45;;;;;;;4.90;1.80;;;17.70;80.50;;;;;;6181565;23;46256;-69
2022/11/26 12:36:19;;;;;;;3.38;1.65;;;17.80;80.70;;;;;;6182078;23;45259;-68
2022/11/26 12:38:52;;;;;;;5.97;1.98;;;17.70;80.70;;;;;;6182102;23;45531;-68
2022/11/26 12:41:23;;;;;;;5.88;2.00;;;17.70;80.90;;;;;;6182038;23;45225;-68
2022/11/26 12:43:58;;;;;;;3.20;1.38;;;17.70;80.90;;;;;;6182703;23;47047;-68
2022/11/26 12:46:30;;;;;;;3.58;1.52;;;17.80;81.20;;;;;;6181426;23;45332;-68
2022/11/26 12:49:03;;;;;;;5.03;1.48;;;17.80;81.30;;;;;;6180999;23;45275;-68
2022/11/26 12:51:38;;;;;;;2.85;1.52;;;17.80;81.50;;;;;;6182356;23;45296;-68
2022/11/26 12:54:16;;;;;;;3.35;1.42;;;17.70;81.70;;;;;;6182162;23;45318;-69
2022/11/26 12:56:52;;;;;;;2.65;1.30;;;17.80;81.90;;;;;;6181500;23;45379;-69